sensor_id;sensor_type;location;lat;lon;timestamp;P1;durP1;ratioP1;P2;durP2;ratioP2
10661;SDS011;5379;51.034;7.006;2023-06-26T00:00:10;2.07;;;1.97;;
10661;SDS011;5379;51.034;7.006;2023-06-26T04:32:19;2.03;;;1.93;;
10661;SDS011;5379;51.034;7.006;2023-06-26T04:34:46;2.60;;;2.00;;
10661;SDS011;5379;51.034;7.006;2023-06-26T04:37:13;1.93;;;1.83;;
10661;SDS011;5379;51.034;7.006;2023-06-26T04:39:42;1.97;;;1.87;;
10661;SDS011;5379;51.034;7.006;2023-06-26T04:42:09;1.63;;;1.53;;
10661;SDS011;5379;51.034;7.006;2023-06-26T04:44:37;1.63;;;1.53;;
10661;SDS011;5379;51.034;7.006;2023-06-26T04:47:06;1.30;;;1.30;;
10661;SDS011;5379;51.034;7.006;2023-06-26T04:49:34;1.70;;;1.70;;
10661;SDS011;5379;51.034;7.006;2023-06-26T04:52:01;2.00;;;1.90;;
10661;SDS011;5379;51.034;7.006;2023-06-26T04:54:28;6.30;;;2.23;;
10661;SDS011;5379;51.034;7.006;2023-06-26T04:56:55;2.50;;;2.30;;
10661;SDS011;5379;51.034;7.006;2023-06-26T04:59:22;2.20;;;2.10;;
10661;SDS011;5379;51.034;7.006;2023-06-26T05:01:49;1.63;;;1.60;;
10661;SDS011;5379;51.034;7.006;2023-06-26T05:04:16;2.20;;;2.10;;
10661;SDS011;5379;51.034;7.006;2023-06-26T05:06:44;2.37;;;2.20;;
10661;SDS011;5379;51.034;7.006;2023-06-26T05:09:11;2.13;;;1.90;;
10661;SDS011;5379;51.034;7.006;2023-06-26T05:11:39;2.33;;;2.23;;
10661;SDS011;5379;51.034;7.006;2023-06-26T05:14:06;1.53;;;1.50;;
10661;SDS011;5379;51.034;7.006;2023-06-26T05:16:34;2.33;;;2.10;;
10661;SDS011;5379;51.034;7.006;2023-06-26T05:19:01;1.90;;;1.80;;
10661;SDS011;5379;51.034;7.006;2023-06-26T05:21:28;2.30;;;1.53;;
10661;SDS011;5379;51.034;7.006;2023-06-26T05:23:57;1.90;;;1.80;;
10661;SDS011;5379;51.034;7.006;2023-06-26T05:26:25;3.20;;;1.60;;
10661;SDS011;5379;51.034;7.006;2023-06-26T05:28:52;2.80;;;1.53;;
10661;SDS011;5379;51.034;7.006;2023-06-26T05:31:20;1.07;;;1.03;;
10661;SDS011;5379;51.034;7.006;2023-06-26T05:33:47;1.60;;;1.60;;
10661;SDS011;5379;51.034;7.006;2023-06-26T05:36:16;1.47;;;1.47;;
10661;SDS011;5379;51.034;7.006;2023-06-26T05:38:46;1.90;;;1.77;;
10661;SDS011;5379;51.034;7.006;2023-06-26T05:41:15;3.53;;;2.00;;
10661;SDS011;5379;51.034;7.006;2023-06-26T05:43:42;1.63;;;1.53;;
10661;SDS011;5379;51.034;7.006;2023-06-26T05:46:09;2.07;;;1.97;;
10661;SDS011;5379;51.034;7.006;2023-06-26T05:48:36;1.50;;;1.40;;
10661;SDS011;5379;51.034;7.006;2023-06-26T05:51:04;1.87;;;1.77;;
10661;SDS011;5379;51.034;7.006;2023-06-26T05:53:32;1.53;;;1.53;;
10661;SDS011;5379;51.034;7.006;2023-06-26T05:55:59;1.60;;;1.60;;
10661;SDS011;5379;51.034;7.006;2023-06-26T05:58:28;2.03;;;1.93;;
10661;SDS011;5379;51.034;7.006;2023-06-26T06:00:56;1.70;;;1.60;;
10661;SDS011;5379;51.034;7.006;2023-06-26T06:03:23;1.73;;;1.73;;
10661;SDS011;5379;51.034;7.006;2023-06-26T06:05:50;1.87;;;1.77;;
10661;SDS011;5379;51.034;7.006;2023-06-26T06:08:17;2.20;;;2.10;;
10661;SDS011;5379;51.034;7.006;2023-06-26T06:10:44;2.33;;;2.07;;
10661;SDS011;5379;51.034;7.006;2023-06-26T06:13:10;1.97;;;1.87;;
10661;SDS011;5379;51.034;7.006;2023-06-26T06:15:39;1.73;;;1.63;;
10661;SDS011;5379;51.034;7.006;2023-06-26T06:18:06;2.30;;;2.17;;
10661;SDS011;5379;51.034;7.006;2023-06-26T06:20:33;1.97;;;1.63;;
10661;SDS011;5379;51.034;7.006;2023-06-26T06:23:01;1.20;;;1.20;;
10661;SDS011;5379;51.034;7.006;2023-06-26T06:25:28;1.43;;;1.33;;
10661;SDS011;5379;51.034;7.006;2023-06-26T06:27:55;2.27;;;2.17;;
10661;SDS011;5379;51.034;7.006;2023-06-26T06:30:22;1.83;;;1.73;;
10661;SDS011;5379;51.034;7.006;2023-06-26T06:32:50;1.90;;;1.80;;
10661;SDS011;5379;51.034;7.006;2023-06-26T06:35:17;2.47;;;2.30;;
10661;SDS011;5379;51.034;7.006;2023-06-26T06:37:44;2.77;;;2.03;;
10661;SDS011;5379;51.034;7.006;2023-06-26T06:40:12;2.77;;;1.73;;
10661;SDS011;5379;51.034;7.006;2023-06-26T06:42:39;1.80;;;1.70;;
10661;SDS011;5379;51.034;7.006;2023-06-26T06:45:06;3.10;;;1.80;;
10661;SDS011;5379;51.034;7.006;2023-06-26T06:47:33;2.00;;;1.90;;
10661;SDS011;5379;51.034;7.006;2023-06-26T06:50:02;1.60;;;1.60;;
10661;SDS011;5379;51.034;7.006;2023-06-26T06:52:33;1.60;;;1.50;;
10661;SDS011;5379;51.034;7.006;2023-06-26T06:55:01;1.83;;;1.73;;
10661;SDS011;5379;51.034;7.006;2023-06-26T06:57:31;1.60;;;1.50;;
10661;SDS011;5379;51.034;7.006;2023-06-26T07:00:01;1.97;;;1.80;;
10661;SDS011;5379;51.034;7.006;2023-06-26T07:02:29;3.60;;;2.40;;
10661;SDS011;5379;51.034;7.006;2023-06-26T07:04:56;1.67;;;1.57;;
10661;SDS011;5379;51.034;7.006;2023-06-26T07:07:27;1.97;;;1.87;;
10661;SDS011;5379;51.034;7.006;2023-06-26T07:09:56;1.70;;;1.53;;
10661;SDS011;5379;51.034;7.006;2023-06-26T07:12:24;3.37;;;1.87;;
10661;SDS011;5379;51.034;7.006;2023-06-26T07:14:51;1.73;;;1.63;;
10661;SDS011;5379;51.034;7.006;2023-06-26T07:17:19;1.90;;;1.50;;
10661;SDS011;5379;51.034;7.006;2023-06-26T07:19:46;1.40;;;1.30;;
10661;SDS011;5379;51.034;7.006;2023-06-26T07:22:13;2.33;;;1.53;;
10661;SDS011;5379;51.034;7.006;2023-06-26T07:24:41;1.87;;;1.67;;
10661;SDS011;5379;51.034;7.006;2023-06-26T07:27:08;1.53;;;1.43;;
10661;SDS011;5379;51.034;7.006;2023-06-26T07:29:35;2.27;;;1.83;;
10661;SDS011;5379;51.034;7.006;2023-06-26T07:32:02;3.33;;;1.60;;
10661;SDS011;5379;51.034;7.006;2023-06-26T07:34:29;3.90;;;2.43;;
10661;SDS011;5379;51.034;7.006;2023-06-26T07:36:57;1.83;;;1.10;;
10661;SDS011;5379;51.034;7.006;2023-06-26T07:39:24;1.30;;;1.30;;
10661;SDS011;5379;51.034;7.006;2023-06-26T07:41:53;4.93;;;1.67;;
10661;SDS011;5379;51.034;7.006;2023-06-26T07:44:20;2.47;;;2.17;;
10661;SDS011;5379;51.034;7.006;2023-06-26T07:46:48;6.80;;;2.27;;
10661;SDS011;5379;51.034;7.006;2023-06-26T07:49:15;0.90;;;0.90;;
10661;SDS011;5379;51.034;7.006;2023-06-26T07:51:42;1.93;;;1.83;;
10661;SDS011;5379;51.034;7.006;2023-06-26T07:54:08;1.50;;;1.40;;
10661;SDS011;5379;51.034;7.006;2023-06-26T07:56:51;1.53;;;1.43;;
10661;SDS011;5379;51.034;7.006;2023-06-26T07:59:21;1.67;;;1.57;;
10661;SDS011;5379;51.034;7.006;2023-06-26T08:01:48;2.10;;;1.90;;
10661;SDS011;5379;51.034;7.006;2023-06-26T08:04:17;1.93;;;1.83;;
10661;SDS011;5379;51.034;7.006;2023-06-26T08:06:44;1.97;;;1.63;;
10661;SDS011;5379;51.034;7.006;2023-06-26T08:09:11;1.63;;;1.53;;
10661;SDS011;5379;51.034;7.006;2023-06-26T08:11:38;2.00;;;1.90;;
10661;SDS011;5379;51.034;7.006;2023-06-26T08:14:07;2.23;;;2.10;;
10661;SDS011;5379;51.034;7.006;2023-06-26T08:16:34;0.83;;;0.83;;
10661;SDS011;5379;51.034;7.006;2023-06-26T08:19:00;1.17;;;1.17;;
10661;SDS011;5379;51.034;7.006;2023-06-26T08:21:27;2.30;;;1.77;;
10661;SDS011;5379;51.034;7.006;2023-06-26T08:23:54;2.63;;;1.73;;
10661;SDS011;5379;51.034;7.006;2023-06-26T08:26:21;2.10;;;2.00;;
10661;SDS011;5379;51.034;7.006;2023-06-26T08:28:48;1.87;;;1.70;;
10661;SDS011;5379;51.034;7.006;2023-06-26T08:31:17;1.93;;;1.73;;
10661;SDS011;5379;51.034;7.006;2023-06-26T08:33:44;2.87;;;2.13;;
10661;SDS011;5379;51.034;7.006;2023-06-26T08:36:11;3.00;;;1.50;;
10661;SDS011;5379;51.034;7.006;2023-06-26T08:38:38;1.90;;;1.80;;
10661;SDS011;5379;51.034;7.006;2023-06-26T08:41:06;3.20;;;2.60;;
10661;SDS011;5379;51.034;7.006;2023-06-26T08:43:33;1.30;;;1.20;;
10661;SDS011;5379;51.034;7.006;2023-06-26T08:46:00;3.57;;;2.37;;
10661;SDS011;5379;51.034;7.006;2023-06-26T08:48:29;3.17;;;2.17;;
10661;SDS011;5379;51.034;7.006;2023-06-26T08:50:59;2.40;;;2.10;;
10661;SDS011;5379;51.034;7.006;2023-06-26T08:53:29;2.73;;;1.70;;
10661;SDS011;5379;51.034;7.006;2023-06-26T08:56:00;1.23;;;1.23;;
10661;SDS011;5379;51.034;7.006;2023-06-26T08:58:29;3.20;;;1.93;;
10661;SDS011;5379;51.034;7.006;2023-06-26T09:00:56;4.27;;;2.30;;
10661;SDS011;5379;51.034;7.006;2023-06-26T09:03:24;6.20;;;2.10;;
10661;SDS011;5379;51.034;7.006;2023-06-26T09:05:56;1.67;;;1.40;;
10661;SDS011;5379;51.034;7.006;2023-06-26T09:08:23;2.93;;;1.67;;
10661;SDS011;5379;51.034;7.006;2023-06-26T09:10:51;2.20;;;1.50;;
10661;SDS011;5379;51.034;7.006;2023-06-26T09:13:18;1.40;;;1.30;;
10661;SDS011;5379;51.034;7.006;2023-06-26T09:15:45;2.53;;;1.80;;
10661;SDS011;5379;51.034;7.006;2023-06-26T09:18:13;1.67;;;1.57;;
10661;SDS011;5379;51.034;7.006;2023-06-26T09:20:44;1.77;;;1.67;;
10661;SDS011;5379;51.034;7.006;2023-06-26T09:23:13;1.33;;;1.30;;
10661;SDS011;5379;51.034;7.006;2023-06-26T09:25:40;1.63;;;1.53;;
10661;SDS011;5379;51.034;7.006;2023-06-26T09:28:08;3.33;;;1.90;;
10661;SDS011;5379;51.034;7.006;2023-06-26T09:30:35;5.03;;;1.63;;
10661;SDS011;5379;51.034;7.006;2023-06-26T09:33:12;1.60;;;0.83;;
10661;SDS011;5379;51.034;7.006;2023-06-26T09:35:40;7.80;;;2.10;;
10661;SDS011;5379;51.034;7.006;2023-06-26T09:38:08;3.50;;;1.87;;
10661;SDS011;5379;51.034;7.006;2023-06-26T09:40:36;0.93;;;0.93;;
10661;SDS011;5379;51.034;7.006;2023-06-26T09:43:04;1.10;;;1.10;;
10661;SDS011;5379;51.034;7.006;2023-06-26T09:45:31;5.57;;;1.97;;
10661;SDS011;5379;51.034;7.006;2023-06-26T09:47:59;0.70;;;0.70;;
10661;SDS011;5379;51.034;7.006;2023-06-26T09:50:28;5.00;;;2.40;;
10661;SDS011;5379;51.034;7.006;2023-06-26T09:52:57;2.43;;;1.73;;
10661;SDS011;5379;51.034;7.006;2023-06-26T09:55:24;1.77;;;1.30;;
10661;SDS011;5379;51.034;7.006;2023-06-26T09:57:53;7.97;;;1.70;;
10661;SDS011;5379;51.034;7.006;2023-06-26T10:00:24;1.07;;;1.03;;
10661;SDS011;5379;51.034;7.006;2023-06-26T10:02:51;1.97;;;1.77;;
10661;SDS011;5379;51.034;7.006;2023-06-26T10:05:18;2.70;;;1.40;;
10661;SDS011;5379;51.034;7.006;2023-06-26T10:07:46;2.27;;;1.47;;
10661;SDS011;5379;51.034;7.006;2023-06-26T10:10:13;1.50;;;1.40;;
10661;SDS011;5379;51.034;7.006;2023-06-26T10:12:42;2.43;;;1.70;;
10661;SDS011;5379;51.034;7.006;2023-06-26T10:15:15;1.57;;;1.43;;
10661;SDS011;5379;51.034;7.006;2023-06-26T10:17:43;1.27;;;1.20;;
10661;SDS011;5379;51.034;7.006;2023-06-26T10:20:12;3.50;;;1.83;;
10661;SDS011;5379;51.034;7.006;2023-06-26T10:22:41;2.40;;;1.53;;
10661;SDS011;5379;51.034;7.006;2023-06-26T10:25:10;1.57;;;1.47;;
10661;SDS011;5379;51.034;7.006;2023-06-26T10:27:41;1.00;;;1.00;;
10661;SDS011;5379;51.034;7.006;2023-06-26T10:30:13;1.67;;;1.57;;
10661;SDS011;5379;51.034;7.006;2023-06-26T10:32:45;2.00;;;1.30;;
10661;SDS011;5379;51.034;7.006;2023-06-26T10:35:13;3.17;;;1.33;;
10661;SDS011;5379;51.034;7.006;2023-06-26T10:37:43;1.20;;;1.10;;
10661;SDS011;5379;51.034;7.006;2023-06-26T10:40:11;1.37;;;1.27;;
10661;SDS011;5379;51.034;7.006;2023-06-26T10:42:41;3.27;;;1.97;;
10661;SDS011;5379;51.034;7.006;2023-06-26T10:45:13;2.83;;;1.50;;
10661;SDS011;5379;51.034;7.006;2023-06-26T10:47:45;3.83;;;2.03;;
10661;SDS011;5379;51.034;7.006;2023-06-26T10:50:23;1.23;;;1.07;;
10661;SDS011;5379;51.034;7.006;2023-06-26T10:53:10;1.77;;;0.80;;
10661;SDS011;5379;51.034;7.006;2023-06-26T10:55:44;2.03;;;1.50;;
10661;SDS011;5379;51.034;7.006;2023-06-26T11:03:44;1.27;;;0.90;;
10661;SDS011;5379;51.034;7.006;2023-06-26T11:06:12;0.97;;;0.93;;
10661;SDS011;5379;51.034;7.006;2023-06-26T11:08:44;0.77;;;0.77;;
10661;SDS011;5379;51.034;7.006;2023-06-26T11:11:11;2.93;;;1.40;;
10661;SDS011;5379;51.034;7.006;2023-06-26T11:13:39;1.10;;;1.10;;
10661;SDS011;5379;51.034;7.006;2023-06-26T11:16:06;0.73;;;0.70;;
10661;SDS011;5379;51.034;7.006;2023-06-26T11:18:35;1.03;;;1.00;;
10661;SDS011;5379;51.034;7.006;2023-06-26T11:21:05;2.87;;;1.13;;
10661;SDS011;5379;51.034;7.006;2023-06-26T11:23:35;0.87;;;0.87;;
10661;SDS011;5379;51.034;7.006;2023-06-26T11:26:12;0.90;;;0.90;;
10661;SDS011;5379;51.034;7.006;2023-06-26T11:28:47;0.93;;;0.93;;
10661;SDS011;5379;51.034;7.006;2023-06-26T11:31:24;1.37;;;0.90;;
10661;SDS011;5379;51.034;7.006;2023-06-26T11:33:53;1.00;;;0.87;;
10661;SDS011;5379;51.034;7.006;2023-06-26T11:36:22;1.63;;;1.40;;
10661;SDS011;5379;51.034;7.006;2023-06-26T11:38:54;1.03;;;1.00;;
10661;SDS011;5379;51.034;7.006;2023-06-26T11:41:22;0.87;;;0.80;;
10661;SDS011;5379;51.034;7.006;2023-06-26T11:43:50;1.30;;;1.20;;
10661;SDS011;5379;51.034;7.006;2023-06-26T11:46:18;0.83;;;0.73;;
10661;SDS011;5379;51.034;7.006;2023-06-26T11:48:46;4.03;;;1.33;;
10661;SDS011;5379;51.034;7.006;2023-06-26T11:51:15;1.40;;;0.87;;
10661;SDS011;5379;51.034;7.006;2023-06-26T11:53:42;1.70;;;1.20;;
10661;SDS011;5379;51.034;7.006;2023-06-26T11:56:11;0.80;;;0.80;;
10661;SDS011;5379;51.034;7.006;2023-06-26T11:58:59;1.00;;;1.00;;
10661;SDS011;5379;51.034;7.006;2023-06-26T12:01:29;4.53;;;1.27;;
10661;SDS011;5379;51.034;7.006;2023-06-26T12:03:58;0.60;;;0.60;;
10661;SDS011;5379;51.034;7.006;2023-06-26T12:06:29;1.30;;;1.10;;
10661;SDS011;5379;51.034;7.006;2023-06-26T12:08:58;2.93;;;1.07;;
10661;SDS011;5379;51.034;7.006;2023-06-26T12:11:27;1.00;;;1.00;;
10661;SDS011;5379;51.034;7.006;2023-06-26T12:13:55;0.67;;;0.40;;
10661;SDS011;5379;51.034;7.006;2023-06-26T12:16:22;1.03;;;0.90;;
10661;SDS011;5379;51.034;7.006;2023-06-26T12:18:50;1.50;;;0.93;;
10661;SDS011;5379;51.034;7.006;2023-06-26T12:21:33;0.83;;;0.83;;
10661;SDS011;5379;51.034;7.006;2023-06-26T12:24:13;1.63;;;0.83;;
10661;SDS011;5379;51.034;7.006;2023-06-26T12:26:41;0.97;;;0.57;;
10661;SDS011;5379;51.034;7.006;2023-06-26T12:29:10;1.43;;;0.90;;
10661;SDS011;5379;51.034;7.006;2023-06-26T12:31:39;1.00;;;1.00;;
10661;SDS011;5379;51.034;7.006;2023-06-26T12:34:08;0.60;;;0.50;;
10661;SDS011;5379;51.034;7.006;2023-06-26T12:36:41;0.40;;;0.40;;
10661;SDS011;5379;51.034;7.006;2023-06-26T12:39:09;2.07;;;1.00;;
10661;SDS011;5379;51.034;7.006;2023-06-26T12:41:44;2.43;;;1.20;;
10661;SDS011;5379;51.034;7.006;2023-06-26T12:44:21;1.50;;;1.17;;
10661;SDS011;5379;51.034;7.006;2023-06-26T12:46:53;0.83;;;0.83;;
10661;SDS011;5379;51.034;7.006;2023-06-26T12:49:29;0.50;;;0.50;;
10661;SDS011;5379;51.034;7.006;2023-06-26T12:51:59;2.00;;;1.17;;
10661;SDS011;5379;51.034;7.006;2023-06-26T12:54:27;0.73;;;0.73;;
10661;SDS011;5379;51.034;7.006;2023-06-26T12:56:54;0.77;;;0.77;;
10661;SDS011;5379;51.034;7.006;2023-06-26T12:59:21;2.00;;;1.57;;
10661;SDS011;5379;51.034;7.006;2023-06-26T13:01:48;0.83;;;0.80;;
10661;SDS011;5379;51.034;7.006;2023-06-26T13:04:15;1.93;;;1.10;;
10661;SDS011;5379;51.034;7.006;2023-06-26T13:06:43;2.37;;;1.10;;
10661;SDS011;5379;51.034;7.006;2023-06-26T13:09:11;0.80;;;0.80;;
10661;SDS011;5379;51.034;7.006;2023-06-26T13:11:38;1.00;;;0.93;;
10661;SDS011;5379;51.034;7.006;2023-06-26T13:14:05;0.73;;;0.73;;
10661;SDS011;5379;51.034;7.006;2023-06-26T13:16:32;0.57;;;0.57;;
10661;SDS011;5379;51.034;7.006;2023-06-26T13:18:59;0.67;;;0.60;;
10661;SDS011;5379;51.034;7.006;2023-06-26T13:21:27;1.77;;;0.80;;
10661;SDS011;5379;51.034;7.006;2023-06-26T13:23:54;0.70;;;0.70;;
10661;SDS011;5379;51.034;7.006;2023-06-26T13:26:23;1.30;;;1.03;;
10661;SDS011;5379;51.034;7.006;2023-06-26T13:28:50;1.43;;;0.87;;
10661;SDS011;5379;51.034;7.006;2023-06-26T13:31:17;0.70;;;0.70;;
10661;SDS011;5379;51.034;7.006;2023-06-26T13:33:46;2.40;;;0.83;;
10661;SDS011;5379;51.034;7.006;2023-06-26T13:36:14;0.40;;;0.40;;
10661;SDS011;5379;51.034;7.006;2023-06-26T13:38:41;1.03;;;0.70;;
10661;SDS011;5379;51.034;7.006;2023-06-26T13:41:08;0.97;;;0.80;;
10661;SDS011;5379;51.034;7.006;2023-06-26T13:43:36;0.77;;;0.77;;
10661;SDS011;5379;51.034;7.006;2023-06-26T13:46:03;1.50;;;0.70;;
10661;SDS011;5379;51.034;7.006;2023-06-26T13:48:30;1.47;;;0.80;;
10661;SDS011;5379;51.034;7.006;2023-06-26T13:50:58;0.30;;;0.30;;
10661;SDS011;5379;51.034;7.006;2023-06-26T13:53:25;0.40;;;0.40;;
10661;SDS011;5379;51.034;7.006;2023-06-26T13:55:52;0.70;;;0.70;;
10661;SDS011;5379;51.034;7.006;2023-06-26T13:58:19;0.40;;;0.40;;
10661;SDS011;5379;51.034;7.006;2023-06-26T14:00:49;0.33;;;0.33;;
10661;SDS011;5379;51.034;7.006;2023-06-26T14:03:16;0.70;;;0.67;;
10661;SDS011;5379;51.034;7.006;2023-06-26T14:05:42;0.50;;;0.50;;
10661;SDS011;5379;51.034;7.006;2023-06-26T14:08:09;0.60;;;0.60;;
10661;SDS011;5379;51.034;7.006;2023-06-26T14:10:36;0.60;;;0.60;;
10661;SDS011;5379;51.034;7.006;2023-06-26T14:13:03;0.33;;;0.33;;
10661;SDS011;5379;51.034;7.006;2023-06-26T14:15:30;0.87;;;0.87;;
10661;SDS011;5379;51.034;7.006;2023-06-26T14:18:00;0.53;;;0.53;;
10661;SDS011;5379;51.034;7.006;2023-06-26T14:20:28;0.53;;;0.40;;
10661;SDS011;5379;51.034;7.006;2023-06-26T14:22:57;0.63;;;0.63;;
10661;SDS011;5379;51.034;7.006;2023-06-26T14:25:25;0.80;;;0.67;;
10661;SDS011;5379;51.034;7.006;2023-06-26T14:27:53;0.37;;;0.37;;
10661;SDS011;5379;51.034;7.006;2023-06-26T14:30:20;5.67;;;1.00;;
10661;SDS011;5379;51.034;7.006;2023-06-26T14:32:47;0.63;;;0.63;;
10661;SDS011;5379;51.034;7.006;2023-06-26T14:35:15;0.33;;;0.33;;
10661;SDS011;5379;51.034;7.006;2023-06-26T14:37:42;0.40;;;0.40;;
10661;SDS011;5379;51.034;7.006;2023-06-26T14:40:10;6.40;;;1.23;;
10661;SDS011;5379;51.034;7.006;2023-06-26T14:42:38;0.70;;;0.43;;
10661;SDS011;5379;51.034;7.006;2023-06-26T14:45:05;0.90;;;0.90;;
10661;SDS011;5379;51.034;7.006;2023-06-26T14:47:33;0.27;;;0.27;;
10661;SDS011;5379;51.034;7.006;2023-06-26T14:50:00;0.27;;;0.27;;
10661;SDS011;5379;51.034;7.006;2023-06-26T14:52:28;1.63;;;1.03;;
10661;SDS011;5379;51.034;7.006;2023-06-26T14:54:55;0.67;;;0.67;;
10661;SDS011;5379;51.034;7.006;2023-06-26T14:57:22;0.73;;;0.60;;
10661;SDS011;5379;51.034;7.006;2023-06-26T14:59:49;0.60;;;0.60;;
10661;SDS011;5379;51.034;7.006;2023-06-26T15:02:16;0.47;;;0.40;;
10661;SDS011;5379;51.034;7.006;2023-06-26T15:04:43;0.60;;;0.60;;
10661;SDS011;5379;51.034;7.006;2023-06-26T15:07:11;0.63;;;0.50;;
10661;SDS011;5379;51.034;7.006;2023-06-26T15:09:39;0.60;;;0.60;;
10661;SDS011;5379;51.034;7.006;2023-06-26T15:12:07;0.60;;;0.60;;
10661;SDS011;5379;51.034;7.006;2023-06-26T15:14:34;0.87;;;0.77;;
10661;SDS011;5379;51.034;7.006;2023-06-26T15:17:01;0.83;;;0.70;;
10661;SDS011;5379;51.034;7.006;2023-06-26T15:19:28;0.93;;;0.67;;
10661;SDS011;5379;51.034;7.006;2023-06-26T15:21:55;0.40;;;0.40;;
10661;SDS011;5379;51.034;7.006;2023-06-26T15:24:22;1.70;;;0.80;;
10661;SDS011;5379;51.034;7.006;2023-06-26T15:26:50;0.40;;;0.40;;
10661;SDS011;5379;51.034;7.006;2023-06-26T15:29:17;0.70;;;0.70;;
10661;SDS011;5379;51.034;7.006;2023-06-26T15:31:44;0.67;;;0.67;;
10661;SDS011;5379;51.034;7.006;2023-06-26T15:34:11;2.20;;;0.90;;
10661;SDS011;5379;51.034;7.006;2023-06-26T15:36:38;0.90;;;0.90;;
10661;SDS011;5379;51.034;7.006;2023-06-26T15:39:05;1.30;;;0.57;;
10661;SDS011;5379;51.034;7.006;2023-06-26T15:41:32;0.40;;;0.40;;
10661;SDS011;5379;51.034;7.006;2023-06-26T15:44:03;1.83;;;0.80;;
10661;SDS011;5379;51.034;7.006;2023-06-26T15:46:30;0.80;;;0.80;;
10661;SDS011;5379;51.034;7.006;2023-06-26T15:48:57;0.97;;;0.97;;
10661;SDS011;5379;51.034;7.006;2023-06-26T15:51:24;0.50;;;0.50;;
10661;SDS011;5379;51.034;7.006;2023-06-26T15:53:51;0.60;;;0.60;;
10661;SDS011;5379;51.034;7.006;2023-06-26T15:56:18;0.60;;;0.60;;
10661;SDS011;5379;51.034;7.006;2023-06-26T15:58:45;0.40;;;0.40;;
10661;SDS011;5379;51.034;7.006;2023-06-26T16:01:15;2.27;;;0.80;;
10661;SDS011;5379;51.034;7.006;2023-06-26T16:03:42;0.73;;;0.60;;
10661;SDS011;5379;51.034;7.006;2023-06-26T16:06:09;0.70;;;0.70;;
10661;SDS011;5379;51.034;7.006;2023-06-26T16:08:36;0.67;;;0.67;;
10661;SDS011;5379;51.034;7.006;2023-06-26T16:11:04;1.77;;;0.90;;
10661;SDS011;5379;51.034;7.006;2023-06-26T16:13:31;0.70;;;0.60;;
10661;SDS011;5379;51.034;7.006;2023-06-26T16:15:58;1.87;;;0.67;;
10661;SDS011;5379;51.034;7.006;2023-06-26T16:18:27;0.63;;;0.63;;
10661;SDS011;5379;51.034;7.006;2023-06-26T16:20:54;0.67;;;0.67;;
10661;SDS011;5379;51.034;7.006;2023-06-26T16:23:22;1.90;;;0.80;;
10661;SDS011;5379;51.034;7.006;2023-06-26T16:25:49;0.80;;;0.80;;
10661;SDS011;5379;51.034;7.006;2023-06-26T16:28:16;0.90;;;0.90;;
10661;SDS011;5379;51.034;7.006;2023-06-26T16:30:43;0.73;;;0.73;;
10661;SDS011;5379;51.034;7.006;2023-06-26T16:33:10;0.40;;;0.40;;
10661;SDS011;5379;51.034;7.006;2023-06-26T16:35:39;0.47;;;0.47;;
10661;SDS011;5379;51.034;7.006;2023-06-26T16:38:06;0.40;;;0.40;;
10661;SDS011;5379;51.034;7.006;2023-06-26T16:40:34;0.30;;;0.30;;
10661;SDS011;5379;51.034;7.006;2023-06-26T16:43:02;0.60;;;0.60;;
10661;SDS011;5379;51.034;7.006;2023-06-26T16:45:29;3.87;;;0.67;;
10661;SDS011;5379;51.034;7.006;2023-06-26T16:47:56;1.30;;;0.73;;
10661;SDS011;5379;51.034;7.006;2023-06-26T16:50:23;0.50;;;0.50;;
10661;SDS011;5379;51.034;7.006;2023-06-26T16:52:52;0.50;;;0.50;;
10661;SDS011;5379;51.034;7.006;2023-06-26T16:55:19;0.47;;;0.47;;
10661;SDS011;5379;51.034;7.006;2023-06-26T16:57:45;0.70;;;0.70;;
10661;SDS011;5379;51.034;7.006;2023-06-26T17:00:13;0.70;;;0.70;;
10661;SDS011;5379;51.034;7.006;2023-06-26T17:02:40;1.17;;;0.67;;
10661;SDS011;5379;51.034;7.006;2023-06-26T17:05:07;0.57;;;0.57;;
10661;SDS011;5379;51.034;7.006;2023-06-26T17:07:36;0.70;;;0.70;;
10661;SDS011;5379;51.034;7.006;2023-06-26T17:10:06;0.67;;;0.67;;
10661;SDS011;5379;51.034;7.006;2023-06-26T17:12:36;0.53;;;0.53;;
10661;SDS011;5379;51.034;7.006;2023-06-26T17:15:04;0.27;;;0.27;;
10661;SDS011;5379;51.034;7.006;2023-06-26T17:17:32;0.30;;;0.30;;
10661;SDS011;5379;51.034;7.006;2023-06-26T17:19:59;0.60;;;0.60;;
10661;SDS011;5379;51.034;7.006;2023-06-26T17:22:28;0.67;;;0.67;;
10661;SDS011;5379;51.034;7.006;2023-06-26T17:24:55;2.40;;;0.60;;
10661;SDS011;5379;51.034;7.006;2023-06-26T17:27:25;0.47;;;0.47;;
10661;SDS011;5379;51.034;7.006;2023-06-26T17:29:53;0.40;;;0.40;;
10661;SDS011;5379;51.034;7.006;2023-06-26T17:32:20;0.40;;;0.40;;
10661;SDS011;5379;51.034;7.006;2023-06-26T17:34:47;0.40;;;0.40;;
10661;SDS011;5379;51.034;7.006;2023-06-26T17:37:14;0.70;;;0.70;;
10661;SDS011;5379;51.034;7.006;2023-06-26T17:39:41;0.50;;;0.30;;
10661;SDS011;5379;51.034;7.006;2023-06-26T17:42:08;0.40;;;0.40;;
10661;SDS011;5379;51.034;7.006;2023-06-26T17:44:36;0.60;;;0.60;;
10661;SDS011;5379;51.034;7.006;2023-06-26T17:47:03;0.60;;;0.60;;
10661;SDS011;5379;51.034;7.006;2023-06-26T17:49:31;0.60;;;0.60;;
10661;SDS011;5379;51.034;7.006;2023-06-26T17:51:58;0.40;;;0.40;;
10661;SDS011;5379;51.034;7.006;2023-06-26T17:54:26;0.57;;;0.57;;
10661;SDS011;5379;51.034;7.006;2023-06-26T17:56:52;0.40;;;0.40;;
10661;SDS011;5379;51.034;7.006;2023-06-26T17:59:19;0.40;;;0.40;;
10661;SDS011;5379;51.034;7.006;2023-06-26T18:01:48;0.70;;;0.50;;
10661;SDS011;5379;51.034;7.006;2023-06-26T18:04:15;0.30;;;0.30;;
10661;SDS011;5379;51.034;7.006;2023-06-26T18:06:42;0.93;;;0.57;;
10661;SDS011;5379;51.034;7.006;2023-06-26T18:09:09;0.57;;;0.57;;
10661;SDS011;5379;51.034;7.006;2023-06-26T18:11:36;1.23;;;0.77;;
10661;SDS011;5379;51.034;7.006;2023-06-26T18:14:03;0.50;;;0.50;;
10661;SDS011;5379;51.034;7.006;2023-06-26T18:16:30;0.47;;;0.47;;
10661;SDS011;5379;51.034;7.006;2023-06-26T18:18:58;0.23;;;0.23;;
10661;SDS011;5379;51.034;7.006;2023-06-26T18:21:25;18.13;;;1.63;;
10661;SDS011;5379;51.034;7.006;2023-06-26T18:23:53;1.13;;;0.90;;
10661;SDS011;5379;51.034;7.006;2023-06-26T18:26:20;0.40;;;0.40;;
10661;SDS011;5379;51.034;7.006;2023-06-26T18:28:47;1.03;;;0.57;;
10661;SDS011;5379;51.034;7.006;2023-06-26T18:31:15;0.10;;;0.10;;
10661;SDS011;5379;51.034;7.006;2023-06-26T18:33:42;0.40;;;0.40;;
10661;SDS011;5379;51.034;7.006;2023-06-26T18:36:10;0.60;;;0.60;;
10661;SDS011;5379;51.034;7.006;2023-06-26T18:38:40;1.50;;;0.50;;
10661;SDS011;5379;51.034;7.006;2023-06-26T18:41:07;0.57;;;0.50;;
10661;SDS011;5379;51.034;7.006;2023-06-26T18:43:34;0.60;;;0.60;;
10661;SDS011;5379;51.034;7.006;2023-06-26T18:46:01;0.70;;;0.70;;
10661;SDS011;5379;51.034;7.006;2023-06-26T18:48:28;1.17;;;0.70;;
10661;SDS011;5379;51.034;7.006;2023-06-26T18:50:55;0.53;;;0.53;;
10661;SDS011;5379;51.034;7.006;2023-06-26T18:53:23;0.53;;;0.53;;
10661;SDS011;5379;51.034;7.006;2023-06-26T18:55:50;1.37;;;0.93;;
10661;SDS011;5379;51.034;7.006;2023-06-26T18:58:17;0.67;;;0.67;;
10661;SDS011;5379;51.034;7.006;2023-06-26T19:00:44;0.67;;;0.63;;
10661;SDS011;5379;51.034;7.006;2023-06-26T19:03:11;0.53;;;0.53;;
10661;SDS011;5379;51.034;7.006;2023-06-26T19:05:38;0.60;;;0.60;;
10661;SDS011;5379;51.034;7.006;2023-06-26T19:08:05;0.50;;;0.50;;
10661;SDS011;5379;51.034;7.006;2023-06-26T19:10:33;0.60;;;0.60;;
10661;SDS011;5379;51.034;7.006;2023-06-26T19:13:01;0.37;;;0.37;;
10661;SDS011;5379;51.034;7.006;2023-06-26T19:15:29;0.40;;;0.40;;
10661;SDS011;5379;51.034;7.006;2023-06-26T19:17:56;1.97;;;0.67;;
10661;SDS011;5379;51.034;7.006;2023-06-26T19:20:23;0.40;;;0.40;;
10661;SDS011;5379;51.034;7.006;2023-06-26T19:22:50;0.67;;;0.67;;
10661;SDS011;5379;51.034;7.006;2023-06-26T19:25:18;0.30;;;0.30;;
10661;SDS011;5379;51.034;7.006;2023-06-26T19:27:46;2.43;;;0.60;;
10661;SDS011;5379;51.034;7.006;2023-06-26T19:30:13;0.60;;;0.60;;
10661;SDS011;5379;51.034;7.006;2023-06-26T19:32:40;0.47;;;0.47;;
10661;SDS011;5379;51.034;7.006;2023-06-26T19:35:07;0.80;;;0.80;;
10661;SDS011;5379;51.034;7.006;2023-06-26T19:37:35;0.50;;;0.50;;
10661;SDS011;5379;51.034;7.006;2023-06-26T19:40:02;1.30;;;0.50;;